Torres, Brazil
Current Conditions -  °F | °C
As of 9:00 AM on Friday 28 Nov 2014 (Local Time) from SBKG Reporting Station
Broken Clouds Broken Clouds  
Wind Chill: 79°   Ceiling: 3300
Heat Index: 81°   Visibility: 6mi
Dew Point: 66°   Wind: 13mph
Humidity: 65%   Direction: 100°E
Pressure: 30"   Gusts: NA
Location:  8.02°S, 36.07°W
Report Text: SBKG 281200Z 10011KT 9999 BKN033 26/19 Q1016
Loading
Personal Weather Stations






























Interactive Weather Map New forecast layout! Learn more

10-Day Weather Forecast

Advertisements
Track Severe Weather on mobile